Time,TemperatureF,DewpointF,PressureIn,WindDirection,WindDirectionDegrees,WindSpeedMPH,WindSpeedGustMPH,Humidity,HourlyPrecipIn,Conditions,Clouds,dailyrainin,SolarRadiationWatts/m^2,SoftwareType,DateUTC
2013-06-28 00:01:00,71.8,70.3,29.56,SSW,193,3.5,3.5,95,0.00,RA,,0.00,0.0,WeatherDisplay:10.37,2013-06-28 04:01:00,
2013-06-28 00:02:00,71.9,70.4,29.56,SSW,192,4.6,4.6,95,0.00,RA,,0.00,0.0,WeatherDisplay:10.37,2013-06-28 04:02:00,
2013-06-28 00:07:00,71.9,70.4,29.56,South,180,3.5,3.5,95,0.00,RA,,0.00,0.0,WeatherDisplay:10.37,2013-06-28 04:07:00,
2013-06-28 00:12:00,71.8,70.3,29.56,South,178,1.2,1.2,95,0.00,RA,,0.00,0.0,WeatherDisplay:10.37,2013-06-28 04:12:00,
2013-06-28 00:17:00,71.8,70.6,29.56,SSE,148,2.3,2.3,96,0.00,RA,,0.00,0.0,WeatherDisplay:10.37,2013-06-28 04:17:00,
2013-06-28 00:22:00,71.9,70.7,29.56,South,187,3.5,3.5,96,0.00,RA,,0.00,0.0,WeatherDisplay:10.37,2013-06-28 04:22:00,
2013-06-28 00:27:00,72.1,70.9,29.56,South,181,5.8,5.8,96,0.00,RA,,0.00,0.0,WeatherDisplay:10.37,2013-06-28 04:27:00,
2013-06-28 00:32:00,72.3,71.1,29.55,SW,217,7.0,7.0,96,0.00,RA,,0.00,0.0,WeatherDisplay:10.37,2013-06-28 04:32:00,
2013-06-28 00:37:00,72.4,70.9,29.55,East,98,6.0,6.0,95,0.00,RA,,0.00,0.0,WeatherDisplay:10.37,2013-06-28 04:37:00,
2013-06-28 00:42:00,72.4,70.9,29.55,South,174,8.1,8.1,95,0.00,RA,,0.00,0.0,WeatherDisplay:10.37,2013-06-28 04:42:00,
2013-06-28 00:47:00,72.4,70.9,29.55,SSW,202,5.8,5.8,95,0.00,RA,,0.00,0.0,WeatherDisplay:10.37,2013-06-28 04:47:00,
2013-06-28 00:52:00,72.3,70.8,29.55,South,190,5.8,5.8,95,0.00,RA,,0.00,0.0,WeatherDisplay:10.37,2013-06-28 04:52:00,
2013-06-28 00:57:00,72.3,70.8,29.55,South,190,3.5,3.5,95,0.00,RA,,0.00,0.0,WeatherDisplay:10.37,2013-06-28 04:57:00,
2013-06-28 01:02:00,72.2,70.7,29.55,SSW,192,5.8,5.8,95,0.00,FEW,,0.00,0.0,WeatherDisplay:10.37,2013-06-28 05:02:00,
2013-06-28 01:07:00,72.1,70.6,29.55,SSW,211,5.8,5.8,95,0.00,FEW,,0.00,0.0,WeatherDisplay:10.37,2013-06-28 05:07:00,
2013-06-28 01:12:00,72.1,70.6,29.55,SSW,209,8.1,8.1,95,0.00,FEW,,0.00,0.0,WeatherDisplay:10.37,2013-06-28 05:12:00,
2013-06-28 01:17:00,72.0,70.5,29.55,SSW,204,9.2,9.2,95,0.00,FEW,,0.00,0.0,WeatherDisplay:10.37,2013-06-28 05:17:00,
2013-06-28 01:22:00,71.9,70.4,29.55,SSW,200,5.8,5.8,95,0.00,FEW,,0.00,0.0,WeatherDisplay:10.37,2013-06-28 05:22:00,
2013-06-28 01:27:00,71.8,70.6,29.55,SSW,205,4.6,4.6,96,0.00,FEW,,0.00,0.0,WeatherDisplay:10.37,2013-06-28 05:27:00,
2013-06-28 01:32:00,71.7,70.5,29.55,South,184,5.8,5.8,96,0.00,FEW,,0.00,0.0,WeatherDisplay:10.37,2013-06-28 05:32:00,
2013-06-28 01:37:00,71.7,70.2,29.55,South,178,4.0,4.0,95,0.00,FEW,,0.00,0.0,WeatherDisplay:10.37,2013-06-28 05:37:00,
2013-06-28 01:42:00,71.6,70.1,29.55,South,183,3.5,3.5,95,0.00,FEW,,0.00,0.0,WeatherDisplay:10.37,2013-06-28 05:42:00,
2013-06-28 01:47:00,71.6,70.4,29.55,South,185,3.5,3.5,96,0.00,FEW,,0.00,0.0,WeatherDisplay:10.37,2013-06-28 05:47:00,
2013-06-28 01:52:00,71.6,70.4,29.55,SSW,203,5.8,5.8,96,0.00,FEW,,0.00,0.0,WeatherDisplay:10.37,2013-06-28 05:52:00,
2013-06-28 01:57:00,71.7,70.5,29.55,South,182,5.0,5.0,96,0.00,FEW,,0.00,0.0,WeatherDisplay:10.37,2013-06-28 05:57:00,
2013-06-28 02:02:00,71.8,70.3,29.54,South,186,4.6,4.6,95,0.00,FEW,,0.00,0.0,WeatherDisplay:10.37,2013-06-28 06:02:00,
2013-06-28 02:07:00,71.7,70.2,29.54,SSW,196,3.5,3.5,95,0.00,FEW,,0.00,0.0,WeatherDisplay:10.37,2013-06-28 06:07:00,
2013-06-28 02:12:00,71.7,69.9,29.54,SSW,196,6.0,6.0,94,0.00,FEW,,0.00,0.0,WeatherDisplay:10.37,2013-06-28 06:12:00,
2013-06-28 02:17:00,71.8,70.0,29.53,SSW,196,4.6,4.6,94,0.00,FEW,,0.00,0.0,WeatherDisplay:10.37,2013-06-28 06:17:00,
2013-06-28 02:22:00,71.8,69.7,29.53,SSW,192,5.0,5.0,93,0.00,FEW,,0.00,0.0,WeatherDisplay:10.37,2013-06-28 06:22:00,
2013-06-28 02:27:00,71.8,69.7,29.53,SW,230,6.9,6.9,93,0.00,FEW,,0.00,0.0,WeatherDisplay:10.37,2013-06-28 06:27:00,
2013-06-28 02:32:00,71.8,69.7,29.53,SSW,211,6.9,6.9,93,0.00,FEW,,0.00,0.0,WeatherDisplay:10.37,2013-06-28 06:32:00,
2013-06-28 02:37:00,71.8,69.7,29.53,SSW,200,4.6,4.6,93,0.00,FEW,,0.00,0.0,WeatherDisplay:10.37,2013-06-28 06:37:00,
2013-06-28 02:42:00,71.7,69.6,29.53,SSW,192,6.0,6.0,93,0.00,FEW,,0.00,0.0,WeatherDisplay:10.37,2013-06-28 06:42:00,
2013-06-28 02:47:00,71.7,69.3,29.53,SSW,200,5.8,5.8,92,0.00,FEW,,0.00,0.0,WeatherDisplay:10.37,2013-06-28 06:47:00,
2013-06-28 02:52:00,71.5,69.1,29.53,SSW,200,4.6,4.6,92,0.00,FEW,,0.00,0.0,WeatherDisplay:10.37,2013-06-28 06:52:00,
2013-06-28 02:57:00,71.5,69.4,29.53,South,190,3.5,3.5,93,0.00,FEW,,0.00,0.0,WeatherDisplay:10.37,2013-06-28 06:57:00,
2013-06-28 03:02:00,71.5,69.1,29.53,South,182,3.5,3.5,92,0.00,OVC,,0.00,0.0,WeatherDisplay:10.37,2013-06-28 07:02:00,
2013-06-28 03:07:00,71.5,69.1,29.53,South,184,3.5,3.5,92,0.00,OVC,,0.00,0.0,WeatherDisplay:10.37,2013-06-28 07:07:00,
2013-06-28 03:12:00,71.4,69.0,29.53,SW,217,2.3,2.3,92,0.00,OVC,,0.00,0.0,WeatherDisplay:10.37,2013-06-28 07:12:00,
2013-06-28 03:17:00,71.3,68.9,29.52,SW,217,3.5,3.5,92,0.00,OVC,,0.00,0.0,WeatherDisplay:10.37,2013-06-28 07:17:00,
2013-06-28 03:22:00,71.3,69.2,29.52,SW,218,1.2,1.2,93,0.00,OVC,,0.00,0.0,WeatherDisplay:10.37,2013-06-28 07:22:00,
2013-06-28 03:27:00,71.2,69.1,29.52,South,191,3.5,3.5,93,0.00,OVC,,0.00,0.0,WeatherDisplay:10.37,2013-06-28 07:27:00,
2013-06-28 03:32:00,71.1,69.0,29.52,SSW,203,3.5,3.5,93,0.00,OVC,,0.00,0.0,WeatherDisplay:10.37,2013-06-28 07:32:00,
2013-06-28 03:37:00,71.0,69.2,29.52,SSW,200,4.6,4.6,94,0.00,OVC,,0.00,0.0,WeatherDisplay:10.37,2013-06-28 07:37:00,
2013-06-28 03:42:00,70.9,69.1,29.52,South,186,3.5,3.5,94,0.00,OVC,,0.00,0.0,WeatherDisplay:10.37,2013-06-28 07:42:00,
2013-06-28 03:47:00,70.9,69.1,29.52,South,181,3.5,3.5,94,0.00,OVC,,0.00,0.0,WeatherDisplay:10.37,2013-06-28 07:47:00,
2013-06-28 03:52:00,70.9,69.1,29.52,SSW,209,3.5,3.5,94,0.00,OVC,,0.00,0.0,WeatherDisplay:10.37,2013-06-28 07:52:00,
2013-06-28 03:57:00,70.9,69.1,29.52,SW,218,2.3,2.3,94,0.00,OVC,,0.00,0.0,WeatherDisplay:10.37,2013-06-28 07:57:00,
2013-06-28 04:02:00,71.0,69.2,29.51,South,180,3.5,3.5,94,0.00,BKN,,0.00,0.0,WeatherDisplay:10.37,2013-06-28 08:02:00,
2013-06-28 04:07:00,71.0,69.5,29.51,South,184,3.5,3.5,95,0.00,BKN,,0.00,0.0,WeatherDisplay:10.37,2013-06-28 08:07:00,
2013-06-28 04:12:00,71.0,69.5,29.52,SSW,196,2.3,2.3,95,0.00,BKN,,0.00,0.0,WeatherDisplay:10.37,2013-06-28 08:12:00,
2013-06-28 04:17:00,71.0,69.5,29.52,SSW,193,3.5,3.5,95,0.00,BKN,,0.00,0.0,WeatherDisplay:10.37,2013-06-28 08:17:00,
2013-06-28 04:22:00,71.0,69.5,29.51,South,179,3.5,3.5,95,0.00,BKN,,0.00,0.0,WeatherDisplay:10.37,2013-06-28 08:22:00,
2013-06-28 04:27:00,71.0,69.5,29.51,South,182,3.5,3.5,95,0.00,BKN,,0.00,0.0,WeatherDisplay:10.37,2013-06-28 08:27:00,
2013-06-28 04:32:00,71.0,69.5,29.51,South,182,3.5,3.5,95,0.00,BKN,,0.00,0.0,WeatherDisplay:10.37,2013-06-28 08:32:00,
2013-06-28 04:37:00,71.0,69.5,29.51,South,185,3.5,3.5,95,0.00,BKN,,0.00,0.0,WeatherDisplay:10.37,2013-06-28 08:37:00,
2013-06-28 04:42:00,71.0,69.5,29.51,SSW,196,3.5,3.5,95,0.00,BKN,,0.00,0.0,WeatherDisplay:10.37,2013-06-28 08:42:00,
2013-06-28 04:47:00,71.0,69.5,29.52,South,190,3.5,3.5,95,0.00,BKN,,0.00,0.0,WeatherDisplay:10.37,2013-06-28 08:47:00,
2013-06-28 04:52:00,70.9,69.4,29.52,SSW,205,2.0,2.0,95,0.00,BKN,,0.00,0.0,WeatherDisplay:10.37,2013-06-28 08:52:00,
2013-06-28 04:57:00,70.9,69.1,29.52,SW,229,3.5,3.5,94,0.00,BKN,,0.00,0.0,WeatherDisplay:10.37,2013-06-28 08:57:00,
2013-06-28 05:02:00,71.0,69.2,29.52,SW,229,3.5,3.5,94,0.00,OVC,,0.00,0.0,WeatherDisplay:10.37,2013-06-28 09:02:00,
2013-06-28 05:07:00,71.0,69.2,29.52,South,188,2.3,2.3,94,0.00,OVC,,0.00,0.0,WeatherDisplay:10.37,2013-06-28 09:07:00,
2013-06-28 05:12:00,71.0,69.2,29.52,South,188,3.5,3.5,94,0.00,OVC,,0.00,0.0,WeatherDisplay:10.37,2013-06-28 09:12:00,
2013-06-28 05:17:00,71.0,69.2,29.52,South,188,3.5,3.5,94,0.00,OVC,,0.00,0.0,WeatherDisplay:10.37,2013-06-28 09:17:00,
2013-06-28 05:22:00,71.0,69.2,29.52,SSW,197,3.5,3.5,94,0.00,OVC,,0.00,0.0,WeatherDisplay:10.37,2013-06-28 09:22:00,
2013-06-28 05:27:00,70.9,69.1,29.53,SSW,197,2.3,2.3,94,0.00,OVC,,0.00,0.0,WeatherDisplay:10.37,2013-06-28 09:27:00,
2013-06-28 05:32:00,70.9,69.1,29.53,SSW,197,1.2,1.2,94,0.00,OVC,,0.00,0.0,WeatherDisplay:10.37,2013-06-28 09:32:00,
2013-06-28 05:37:00,70.9,69.1,29.53,SSW,197,3.5,3.5,94,0.00,OVC,,0.00,0.0,WeatherDisplay:10.37,2013-06-28 09:37:00,
2013-06-28 05:42:00,70.8,69.0,29.53,SSW,195,3.5,3.5,94,0.00,OVC,,0.00,0.0,WeatherDisplay:10.37,2013-06-28 09:42:00,
2013-06-28 05:47:00,70.9,69.1,29.53,SSW,195,2.3,2.3,94,0.00,OVC,,0.00,0.0,WeatherDisplay:10.37,2013-06-28 09:47:00,
2013-06-28 05:52:00,70.9,69.1,29.53,SSW,195,2.3,2.3,94,0.00,OVC,,0.00,0.0,WeatherDisplay:10.37,2013-06-28 09:52:00,
2013-06-28 05:58:00,70.9,69.1,29.53,SSW,195,3.5,3.5,94,0.00,OVC,,0.00,0.0,WeatherDisplay:10.37,2013-06-28 09:58:00,
2013-06-28 06:03:00,70.9,69.1,29.53,SSW,195,3.5,3.5,94,0.00,OVC,,0.00,0.0,WeatherDisplay:10.37,2013-06-28 10:03:00,
2013-06-28 06:08:00,70.9,69.1,29.53,SSW,195,3.5,3.5,94,0.00,OVC,,0.00,7.0,WeatherDisplay:10.37,2013-06-28 10:08:00,
2013-06-28 06:13:00,70.9,69.1,29.54,South,188,3.5,3.5,94,0.00,OVC,,0.00,11.0,WeatherDisplay:10.37,2013-06-28 10:13:00,
2013-06-28 06:18:00,70.9,69.1,29.53,SSW,198,3.5,3.5,94,0.00,OVC,,0.00,21.0,WeatherDisplay:10.37,2013-06-28 10:18:00,
2013-06-28 06:23:00,71.0,69.2,29.54,South,187,3.5,3.5,94,0.00,OVC,,0.00,32.0,WeatherDisplay:10.37,2013-06-28 10:23:00,
2013-06-28 06:28:00,71.1,69.0,29.54,SW,221,5.8,5.8,93,0.00,OVC,,0.00,47.0,WeatherDisplay:10.37,2013-06-28 10:28:00,
2013-06-28 06:33:00,71.2,69.1,29.54,WSW,242,2.3,2.3,93,0.00,OVC,,0.00,74.0,WeatherDisplay:10.37,2013-06-28 10:33:00,
2013-06-28 06:38:00,71.3,69.2,29.53,SW,229,2.3,2.3,93,0.00,OVC,,0.00,127.0,WeatherDisplay:10.37,2013-06-28 10:38:00,
2013-06-28 06:43:00,71.5,69.1,29.53,SW,220,3.5,3.5,92,0.00,OVC,,0.00,172.0,WeatherDisplay:10.37,2013-06-28 10:43:00,
2013-06-28 06:48:00,72.0,69.2,29.54,SSW,213,6.0,6.0,91,0.00,OVC,,0.00,165.0,WeatherDisplay:10.37,2013-06-28 10:48:00,
2013-06-28 06:53:00,72.5,69.1,29.54,West,275,5.0,5.0,89,0.00,OVC,,0.00,130.0,WeatherDisplay:10.37,2013-06-28 10:53:00,
2013-06-28 06:58:00,72.7,68.9,29.54,West,277,3.5,3.5,88,0.00,OVC,,0.00,47.0,WeatherDisplay:10.37,2013-06-28 10:58:00,
2013-06-28 07:03:00,72.7,68.6,29.54,WNW,296,5.8,5.8,87,0.00,OVC,,0.00,28.0,WeatherDisplay:10.37,2013-06-28 11:03:00,
2013-06-28 07:08:00,72.6,68.5,29.54,WNW,294,4.6,4.6,87,0.00,OVC,,0.00,25.0,WeatherDisplay:10.37,2013-06-28 11:08:00,
2013-06-28 07:13:00,72.6,68.5,29.54,West,273,6.9,6.9,87,0.00,OVC,,0.00,39.0,WeatherDisplay:10.37,2013-06-28 11:13:00,
2013-06-28 07:18:00,72.5,68.4,29.54,West,262,5.8,5.8,87,0.00,OVC,,0.00,35.0,WeatherDisplay:10.37,2013-06-28 11:18:00,
2013-06-28 07:23:00,72.5,68.4,29.55,NW,306,5.8,6.0,87,0.00,OVC,,0.00,28.0,WeatherDisplay:10.37,2013-06-28 11:23:00,
2013-06-28 07:28:00,72.4,68.6,29.55,WNW,300,8.1,8.1,88,0.00,OVC,,0.00,54.0,WeatherDisplay:10.37,2013-06-28 11:28:00,
2013-06-28 07:33:00,72.2,68.4,29.55,WNW,303,8.1,8.1,88,0.00,OVC,,0.00,54.0,WeatherDisplay:10.37,2013-06-28 11:33:00,
2013-06-28 07:38:00,72.2,68.4,29.55,NW,304,8.1,8.1,88,0.00,OVC,,0.00,113.0,WeatherDisplay:10.37,2013-06-28 11:38:00,
2013-06-28 07:43:00,72.3,68.9,29.55,WNW,298,5.8,5.8,89,0.00,OVC,,0.00,93.0,WeatherDisplay:10.37,2013-06-28 11:43:00,
2013-06-28 07:48:00,72.3,68.9,29.55,WNW,287,4.6,4.6,89,0.00,OVC,,0.00,105.0,WeatherDisplay:10.37,2013-06-28 11:48:00,
2013-06-28 07:53:00,72.2,68.8,29.55,WNW,296,5.8,5.8,89,0.00,OVC,,0.00,67.0,WeatherDisplay:10.37,2013-06-28 11:53:00,
2013-06-28 07:58:00,72.2,68.8,29.55,WNW,288,3.5,3.5,89,0.00,OVC,,0.00,183.0,WeatherDisplay:10.37,2013-06-28 11:58:00,
2013-06-28 08:03:00,72.5,69.4,29.55,WNW,298,4.6,4.6,90,0.00,BKN,,0.00,364.0,WeatherDisplay:10.37,2013-06-28 12:03:00,
2013-06-28 08:08:00,73.0,69.6,29.55,NW,323,4.0,4.0,89,0.00,BKN,,0.00,373.0,WeatherDisplay:10.37,2013-06-28 12:08:00,
2013-06-28 08:13:00,73.4,69.6,29.55,WNW,296,9.2,9.2,88,0.00,BKN,,0.00,420.0,WeatherDisplay:10.37,2013-06-28 12:13:00,
2013-06-28 08:18:00,73.6,69.8,29.55,West,268,4.6,4.6,88,0.00,BKN,,0.00,149.0,WeatherDisplay:10.37,2013-06-28 12:18:00,
2013-06-28 08:23:00,73.8,69.7,29.54,NW,305,6.9,6.9,87,0.00,BKN,,0.00,441.0,WeatherDisplay:10.37,2013-06-28 12:23:00,
2013-06-28 08:28:00,73.9,69.8,29.54,WNW,283,8.1,8.1,87,0.00,BKN,,0.00,429.0,WeatherDisplay:10.37,2013-06-28 12:28:00,
2013-06-28 08:33:00,74.4,70.3,29.55,WSW,237,6.9,6.9,87,0.00,BKN,,0.00,580.0,WeatherDisplay:10.37,2013-06-28 12:33:00,
2013-06-28 08:38:00,74.4,69.9,29.55,WNW,301,8.1,8.1,86,0.00,BKN,,0.00,156.0,WeatherDisplay:10.37,2013-06-28 12:38:00,
2013-06-28 08:43:00,74.0,69.9,29.54,NW,305,6.9,6.9,87,0.00,BKN,,0.00,322.0,WeatherDisplay:10.37,2013-06-28 12:43:00,
2013-06-28 08:48:00,74.3,70.2,29.55,WNW,300,5.0,5.0,87,0.00,BKN,,0.00,172.0,WeatherDisplay:10.37,2013-06-28 12:48:00,
2013-06-28 08:53:00,74.2,69.7,29.55,NW,304,9.2,9.2,86,0.00,BKN,,0.00,580.0,WeatherDisplay:10.37,2013-06-28 12:53:00,
2013-06-28 08:58:00,74.1,69.6,29.55,WNW,292,9.2,9.2,86,0.00,BKN,,0.00,113.0,WeatherDisplay:10.37,2013-06-28 12:58:00,
2013-06-28 09:03:00,74.4,69.6,29.55,NW,304,6.9,6.9,85,0.00,OVC,,0.00,613.0,WeatherDisplay:10.37,2013-06-28 13:03:00,
2013-06-28 09:08:00,75.0,70.2,29.54,West,271,5.8,5.8,85,0.00,OVC,,0.00,258.0,WeatherDisplay:10.37,2013-06-28 13:08:00,
2013-06-28 09:13:00,74.9,69.7,29.54,NW,311,10.4,10.4,84,0.00,OVC,,0.00,221.0,WeatherDisplay:10.37,2013-06-28 13:13:00,
2013-06-28 09:18:00,74.8,70.3,29.54,NW,315,9.2,9.3,86,0.00,OVC,,0.00,682.0,WeatherDisplay:10.37,2013-06-28 13:18:00,
2013-06-28 09:23:00,74.6,69.4,29.54,WNW,292,9.2,9.2,84,0.00,OVC,,0.00,169.0,WeatherDisplay:10.37,2013-06-28 13:23:00,
2013-06-28 09:28:00,75.5,71.0,29.54,NW,311,3.5,3.5,86,0.00,OVC,,0.00,626.0,WeatherDisplay:10.37,2013-06-28 13:28:00,
2013-06-28 09:33:00,76.6,71.0,29.54,NW,307,3.5,3.5,83,0.00,OVC,,0.00,719.0,WeatherDisplay:10.37,2013-06-28 13:33:00,
2013-06-28 09:38:00,76.6,70.3,29.54,WNW,302,6.0,6.0,81,0.00,OVC,,0.00,279.0,WeatherDisplay:10.37,2013-06-28 13:38:00,
2013-06-28 09:43:00,76.0,69.7,29.54,NW,306,8.1,8.1,81,0.00,OVC,,0.00,206.0,WeatherDisplay:10.37,2013-06-28 13:43:00,
2013-06-28 09:48:00,75.9,70.4,29.54,WNW,295,6.9,6.9,83,0.00,OVC,,0.00,796.0,WeatherDisplay:10.37,2013-06-28 13:48:00,
2013-06-28 09:53:00,76.5,69.9,29.54,WNW,299,8.1,8.1,80,0.00,OVC,,0.00,288.0,WeatherDisplay:10.37,2013-06-28 13:53:00,
2013-06-28 09:58:00,77.3,71.0,29.54,West,275,8.1,8.1,81,0.00,OVC,,0.00,819.0,WeatherDisplay:10.37,2013-06-28 13:58:00,
2013-06-28 10:03:00,77.2,70.9,29.54,West,279,3.5,3.5,81,0.00,BKN,,0.00,408.0,WeatherDisplay:10.37,2013-06-28 14:03:00,
2013-06-28 10:08:00,77.6,71.3,29.54,NW,317,8.1,8.1,81,0.00,BKN,,0.00,997.0,WeatherDisplay:10.37,2013-06-28 14:08:00,
2013-06-28 10:13:00,77.0,70.0,29.54,NW,311,11.5,11.5,79,0.00,BKN,,0.00,339.0,WeatherDisplay:10.37,2013-06-28 14:13:00,
2013-06-28 10:18:00,76.4,70.5,29.54,WNW,286,6.9,6.9,82,0.00,BKN,,0.00,506.0,WeatherDisplay:10.37,2013-06-28 14:18:00,
2013-06-28 10:23:00,76.9,69.9,29.55,WNW,298,5.0,5.0,79,0.00,BKN,,0.00,415.0,WeatherDisplay:10.37,2013-06-28 14:23:00,
2013-06-28 10:28:00,76.6,70.3,29.55,NW,313,8.1,8.1,81,0.00,BKN,,0.00,436.0,WeatherDisplay:10.37,2013-06-28 14:28:00,
2013-06-28 10:33:00,77.1,70.8,29.55,NW,307,9.0,9.0,81,0.00,BKN,,0.00,916.0,WeatherDisplay:10.37,2013-06-28 14:33:00,
2013-06-28 10:38:00,77.4,71.1,29.55,West,271,4.6,4.6,81,0.00,BKN,,0.00,856.0,WeatherDisplay:10.37,2013-06-28 14:38:00,
2013-06-28 10:43:00,78.0,70.6,29.55,West,269,8.1,8.1,78,0.00,BKN,,0.00,895.0,WeatherDisplay:10.37,2013-06-28 14:43:00,
2013-06-28 10:48:00,78.2,71.5,29.55,WNW,303,4.6,4.6,80,0.00,BKN,,0.00,691.0,WeatherDisplay:10.37,2013-06-28 14:48:00,
2013-06-28 10:53:00,78.0,70.2,29.55,NW,315,4.0,4.0,77,0.00,BKN,,0.00,450.0,WeatherDisplay:10.37,2013-06-28 14:53:00,
2013-06-28 10:58:00,79.0,71.6,29.55,NW,304,6.9,6.9,78,0.00,BKN,,0.00,515.0,WeatherDisplay:10.37,2013-06-28 14:58:00,
2013-06-28 11:03:00,78.2,70.0,29.55,West,277,6.9,6.9,76,0.00,FEW,,0.00,278.0,WeatherDisplay:10.37,2013-06-28 15:03:00,
2013-06-28 11:08:00,78.2,70.0,29.55,WSW,252,3.5,3.5,76,0.00,FEW,,0.00,239.0,WeatherDisplay:10.37,2013-06-28 15:08:00,
2013-06-28 11:13:00,78.3,70.9,29.55,West,267,4.6,4.6,78,0.00,FEW,,0.00,257.0,WeatherDisplay:10.37,2013-06-28 15:13:00,
2013-06-28 11:18:00,79.1,72.0,29.54,West,279,3.5,3.5,79,0.00,FEW,,0.00,737.0,WeatherDisplay:10.37,2013-06-28 15:18:00,
2013-06-28 11:23:00,79.1,70.1,29.55,WNW,298,8.1,8.1,74,0.00,FEW,,0.00,151.0,WeatherDisplay:10.37,2013-06-28 15:23:00,
2013-06-28 11:28:00,79.2,70.2,29.54,West,272,4.6,4.6,74,0.00,FEW,,0.00,962.0,WeatherDisplay:10.37,2013-06-28 15:28:00,
2013-06-28 11:33:00,79.1,70.9,29.55,NW,312,8.1,8.1,76,0.00,FEW,,0.00,332.0,WeatherDisplay:10.37,2013-06-28 15:33:00,
2013-06-28 11:38:00,79.6,71.0,29.55,West,277,6.0,6.0,75,0.00,FEW,,0.00,264.0,WeatherDisplay:10.37,2013-06-28 15:38:00,
2013-06-28 11:43:00,80.5,71.8,29.55,SW,234,5.8,5.8,75,0.00,FEW,,0.00,747.0,WeatherDisplay:10.37,2013-06-28 15:43:00,
2013-06-28 11:48:00,80.6,71.5,29.55,West,275,3.5,3.5,74,0.00,FEW,,0.00,624.0,WeatherDisplay:10.37,2013-06-28 15:48:00,
2013-06-28 11:53:00,80.6,70.3,29.55,SW,215,4.0,4.0,71,0.00,FEW,,0.00,751.0,WeatherDisplay:10.37,2013-06-28 15:53:00,
2013-06-28 11:58:00,81.0,70.7,29.55,SW,226,3.0,3.0,71,0.00,SCT,,0.00,802.0,WeatherDisplay:10.37,2013-06-28 15:58:00,
2013-06-28 12:03:00,81.2,71.3,29.54,South,189,5.0,5.0,72,0.00,SCT,,0.00,580.0,WeatherDisplay:10.37,2013-06-28 16:03:00,
2013-06-28 12:08:00,81.1,71.6,29.55,SW,225,3.5,3.5,73,0.00,SCT,,0.00,436.0,WeatherDisplay:10.37,2013-06-28 16:08:00,
2013-06-28 12:13:00,80.2,70.8,29.55,SW,215,3.5,3.5,73,0.00,SCT,,0.00,322.0,WeatherDisplay:10.37,2013-06-28 16:13:00,
2013-06-28 12:18:00,79.8,70.0,29.54,SSW,210,4.6,4.6,72,0.00,SCT,,0.00,376.0,WeatherDisplay:10.37,2013-06-28 16:18:00,
2013-06-28 12:23:00,80.4,71.3,29.54,SW,220,3.5,3.5,74,0.00,SCT,,0.00,728.0,WeatherDisplay:10.37,2013-06-28 16:23:00,
2013-06-28 12:28:00,81.2,70.9,29.54,WSW,239,3.5,3.5,71,0.00,SCT,,0.00,381.0,WeatherDisplay:10.37,2013-06-28 16:28:00,
2013-06-28 12:33:00,80.5,70.6,29.55,South,184,3.5,3.5,72,0.00,SCT,,0.00,250.0,WeatherDisplay:10.37,2013-06-28 16:33:00,
2013-06-28 12:38:00,79.9,70.9,29.55,SSW,197,3.5,3.5,74,0.00,SCT,,0.00,279.0,WeatherDisplay:10.37,2013-06-28 16:38:00,
2013-06-28 12:43:00,80.0,71.4,29.55,South,182,3.5,3.5,75,0.00,SCT,,0.00,232.0,WeatherDisplay:10.37,2013-06-28 16:43:00,
2013-06-28 12:48:00,79.8,70.8,29.55,South,182,3.5,3.5,74,0.00,SCT,,0.00,276.0,WeatherDisplay:10.37,2013-06-28 16:48:00,
2013-06-28 12:53:00,80.1,70.7,29.55,SSW,201,5.8,5.8,73,0.00,SCT,,0.00,406.0,WeatherDisplay:10.37,2013-06-28 16:53:00,
2013-06-28 12:58:00,80.5,72.2,29.54,SSW,192,4.6,4.6,76,0.00,SCT,,0.00,541.0,WeatherDisplay:10.37,2013-06-28 16:58:00,
2013-06-28 13:03:00,80.4,71.3,29.54,South,182,3.5,3.5,74,0.00,SCT,,0.00,246.0,WeatherDisplay:10.37,2013-06-28 17:03:00,
2013-06-28 13:08:00,80.0,71.0,29.54,SW,234,3.5,3.5,74,0.00,SCT,,0.00,239.0,WeatherDisplay:10.37,2013-06-28 17:08:00,
2013-06-28 13:13:00,80.0,70.6,29.54,South,173,5.8,5.8,73,0.00,SCT,,0.00,288.0,WeatherDisplay:10.37,2013-06-28 17:13:00,
2013-06-28 13:18:00,80.2,70.8,29.54,South,175,4.6,4.6,73,0.00,SCT,,0.00,239.0,WeatherDisplay:10.37,2013-06-28 17:18:00,
2013-06-28 13:23:00,80.5,72.6,29.54,South,177,5.8,5.8,77,0.00,SCT,,0.00,318.0,WeatherDisplay:10.37,2013-06-28 17:23:00,
2013-06-28 13:28:00,82.4,72.5,29.54,SSW,208,3.5,3.5,72,0.00,SCT,,0.00,1104.0,WeatherDisplay:10.37,2013-06-28 17:28:00,
2013-06-28 13:33:00,83.2,73.2,29.54,SSW,209,3.5,3.5,72,0.00,SCT,,0.00,1114.0,WeatherDisplay:10.37,2013-06-28 17:33:00,
2013-06-28 13:38:00,82.9,72.9,29.54,South,173,3.5,3.5,72,0.00,SCT,,0.00,587.0,WeatherDisplay:10.37,2013-06-28 17:38:00,
2013-06-28 13:43:00,82.0,70.8,29.54,SSW,213,4.6,4.6,69,0.00,SCT,,0.00,264.0,WeatherDisplay:10.37,2013-06-28 17:43:00,
2013-06-28 13:48:00,81.5,70.3,29.53,SSW,205,3.5,3.5,69,0.00,SCT,,0.00,359.0,WeatherDisplay:10.37,2013-06-28 17:48:00,
2013-06-28 13:53:00,81.6,71.3,29.53,South,191,5.8,5.8,71,0.00,SCT,,0.00,403.0,WeatherDisplay:10.37,2013-06-28 17:53:00,
2013-06-28 13:58:00,81.7,69.7,29.53,South,191,3.5,3.5,67,0.00,FEW,,0.00,385.0,WeatherDisplay:10.37,2013-06-28 17:58:00,
2013-06-28 14:03:00,82.6,71.4,29.53,SSW,207,5.8,5.8,69,0.00,FEW,,0.00,473.0,WeatherDisplay:10.37,2013-06-28 18:03:00,
2013-06-28 14:08:00,82.5,69.1,29.53,South,190,5.8,5.8,64,0.00,FEW,,0.00,413.0,WeatherDisplay:10.37,2013-06-28 18:08:00,
2013-06-28 14:13:00,82.4,69.4,29.53,SW,226,3.5,3.5,65,0.00,FEW,,0.00,364.0,WeatherDisplay:10.37,2013-06-28 18:13:00,
2013-06-28 14:18:00,82.1,69.6,29.53,SSW,195,2.3,2.3,66,0.00,FEW,,0.00,279.0,WeatherDisplay:10.37,2013-06-28 18:18:00,
2013-06-28 14:23:00,81.9,69.4,29.52,SW,223,4.6,4.6,66,0.00,FEW,,0.00,243.0,WeatherDisplay:10.37,2013-06-28 18:23:00,
2013-06-28 14:28:00,81.7,70.1,29.52,SSW,200,4.6,4.6,68,0.00,FEW,,0.00,343.0,WeatherDisplay:10.37,2013-06-28 18:28:00,
2013-06-28 14:33:00,81.6,70.4,29.51,South,190,3.5,3.5,69,0.00,FEW,,0.00,350.0,WeatherDisplay:10.37,2013-06-28 18:33:00,
2013-06-28 14:38:00,81.4,70.7,29.50,South,182,5.0,5.0,70,0.00,FEW,,0.00,292.0,WeatherDisplay:10.37,2013-06-28 18:38:00,
2013-06-28 14:43:00,80.8,70.5,29.51,South,180,4.6,4.6,71,0.00,FEW,,0.00,297.0,WeatherDisplay:10.37,2013-06-28 18:43:00,
2013-06-28 14:48:00,80.4,70.5,29.51,SE,124,4.6,4.6,72,0.00,FEW,,0.00,295.0,WeatherDisplay:10.37,2013-06-28 18:48:00,
2013-06-28 14:53:00,80.6,71.9,29.50,South,175,5.0,5.0,75,0.00,FEW,,0.00,360.0,WeatherDisplay:10.37,2013-06-28 18:53:00,
2013-06-28 14:58:00,82.0,72.5,29.50,South,180,4.0,4.0,73,0.00,FEW,,0.00,983.0,WeatherDisplay:10.37,2013-06-28 18:58:00,
2013-06-28 15:03:00,82.9,71.3,29.51,South,188,3.5,3.5,68,0.00,FEW,,0.00,983.0,WeatherDisplay:10.37,2013-06-28 19:03:00,
2013-06-28 15:08:00,83.6,70.1,29.50,SW,225,3.5,3.5,64,0.00,FEW,,0.00,274.0,WeatherDisplay:10.37,2013-06-28 19:08:00,
2013-06-28 15:13:00,82.1,70.1,29.50,South,173,3.5,3.5,67,0.00,FEW,,0.00,258.0,WeatherDisplay:10.37,2013-06-28 19:13:00,
2013-06-28 15:18:00,81.4,68.9,29.50,SW,236,3.5,3.5,66,0.00,FEW,,0.00,350.0,WeatherDisplay:10.37,2013-06-28 19:18:00,
2013-06-28 15:23:00,81.6,70.4,29.49,South,188,3.5,3.5,69,0.00,FEW,,0.00,332.0,WeatherDisplay:10.37,2013-06-28 19:23:00,
2013-06-28 15:28:00,81.6,69.6,29.49,SSW,213,2.3,2.3,67,0.00,FEW,,0.00,274.0,WeatherDisplay:10.37,2013-06-28 19:28:00,
2013-06-28 15:33:00,81.6,69.1,29.49,SSW,211,2.3,2.3,66,0.00,FEW,,0.00,297.0,WeatherDisplay:10.37,2013-06-28 19:33:00,
2013-06-28 15:38:00,81.5,69.9,29.49,SSW,205,4.0,4.0,68,0.00,FEW,,0.00,239.0,WeatherDisplay:10.37,2013-06-28 19:38:00,
2013-06-28 15:44:00,80.8,71.7,29.50,South,172,6.9,6.9,74,0.00,FEW,,0.00,188.0,WeatherDisplay:10.37,2013-06-28 19:44:00,
2013-06-28 15:49:00,79.6,70.2,29.50,ESE,105,3.5,3.5,73,0.00,FEW,,0.00,132.0,WeatherDisplay:10.37,2013-06-28 19:49:00,
2013-06-28 15:54:00,78.8,69.8,29.50,SE,131,4.6,4.6,74,0.00,FEW,,0.00,104.0,WeatherDisplay:10.37,2013-06-28 19:54:00,
2013-06-28 15:59:00,78.1,69.9,29.50,SSE,155,3.5,3.5,76,0.00,FEW,,0.00,84.0,WeatherDisplay:10.37,2013-06-28 19:59:00,
2013-06-28 16:04:00,77.5,69.7,29.50,SE,138,3.5,3.5,77,0.00,FEW,,0.00,60.0,WeatherDisplay:10.37,2013-06-28 20:04:00,
2013-06-28 16:09:00,77.1,68.9,29.50,SE,126,3.0,3.0,76,0.00,FEW,,0.00,44.0,WeatherDisplay:10.37,2013-06-28 20:09:00,
2013-06-28 16:14:00,77.0,69.2,29.50,SSE,151,4.6,4.6,77,0.00,FEW,,0.00,35.0,WeatherDisplay:10.37,2013-06-28 20:14:00,
2013-06-28 16:19:00,76.9,68.8,29.50,SE,138,3.5,3.5,76,0.00,FEW,,0.00,32.0,WeatherDisplay:10.37,2013-06-28 20:19:00,
2013-06-28 16:24:00,76.9,68.8,29.50,East,96,3.5,3.5,76,0.00,FEW,,0.00,44.0,WeatherDisplay:10.37,2013-06-28 20:24:00,
2013-06-28 16:29:00,76.7,69.3,29.49,ESE,109,3.5,3.5,78,0.00,FEW,,0.00,137.0,WeatherDisplay:10.37,2013-06-28 20:29:00,
2013-06-28 16:34:00,76.5,70.2,29.49,East,82,3.5,3.5,81,0.00,FEW,,0.00,320.0,WeatherDisplay:10.37,2013-06-28 20:34:00,
2013-06-28 16:39:00,76.4,71.2,29.49,East,98,4.6,4.6,84,0.00,FEW,,0.00,352.0,WeatherDisplay:10.37,2013-06-28 20:39:00,
2013-06-28 16:44:00,76.3,71.1,29.48,ESE,104,4.0,4.0,84,0.00,FEW,,0.00,285.0,WeatherDisplay:10.37,2013-06-28 20:44:00,
2013-06-28 16:49:00,76.1,70.6,29.49,South,169,3.5,3.5,83,0.00,FEW,,0.00,186.0,WeatherDisplay:10.37,2013-06-28 20:49:00,
2013-06-28 16:54:00,76.2,70.3,29.49,SE,136,3.5,3.5,82,0.00,FEW,,0.00,278.0,WeatherDisplay:10.37,2013-06-28 20:54:00,
2013-06-28 16:59:00,77.0,70.4,29.49,SE,128,2.3,2.3,80,0.00,BKN,,0.00,336.0,WeatherDisplay:10.37,2013-06-28 20:59:00,
2013-06-28 17:04:00,76.8,70.2,29.49,ESE,105,2.3,2.3,80,0.00,BKN,,0.00,162.0,WeatherDisplay:10.37,2013-06-28 21:04:00,
2013-06-28 17:09:00,76.6,69.6,29.49,SSE,168,3.5,3.5,79,0.00,BKN,,0.00,188.0,WeatherDisplay:10.37,2013-06-28 21:09:00,
2013-06-28 17:14:00,76.6,70.0,29.49,SE,132,3.5,3.5,80,0.00,BKN,,0.00,167.0,WeatherDisplay:10.37,2013-06-28 21:14:00,
2013-06-28 17:19:00,76.5,69.9,29.50,ESE,119,6.9,6.9,80,0.00,BKN,,0.00,121.0,WeatherDisplay:10.37,2013-06-28 21:19:00,
2013-06-28 17:24:00,76.3,70.0,29.50,SSW,196,2.3,2.3,81,0.00,BKN,,0.00,76.0,WeatherDisplay:10.37,2013-06-28 21:24:00,
2013-06-28 17:29:00,76.0,69.4,29.50,South,180,3.5,3.5,80,0.00,BKN,,0.00,54.0,WeatherDisplay:10.37,2013-06-28 21:29:00,
2013-06-28 17:34:00,75.8,69.2,29.50,SE,124,2.0,2.0,80,0.00,BKN,,0.00,49.0,WeatherDisplay:10.37,2013-06-28 21:34:00,
2013-06-28 17:39:00,75.7,69.5,29.51,SSE,163,3.5,3.5,81,0.00,BKN,,0.00,67.0,WeatherDisplay:10.37,2013-06-28 21:39:00,
2013-06-28 17:44:00,75.6,69.7,29.50,South,186,3.5,3.5,82,0.00,BKN,,0.00,54.0,WeatherDisplay:10.37,2013-06-28 21:44:00,
2013-06-28 17:49:00,75.4,69.2,29.50,ESE,115,3.5,3.5,81,0.00,BKN,,0.00,54.0,WeatherDisplay:10.37,2013-06-28 21:49:00,
2013-06-28 17:54:00,75.0,69.1,29.50,ESE,109,3.5,3.5,82,0.00,BKN,,0.00,70.0,WeatherDisplay:10.37,2013-06-28 21:54:00,
2013-06-28 17:59:00,74.7,69.2,29.50,ESE,115,3.5,3.5,83,0.00,CLR,,0.00,113.0,WeatherDisplay:10.37,2013-06-28 21:59:00,
2013-06-28 18:04:00,74.6,69.4,29.50,SE,124,4.6,4.6,84,0.00,CLR,,0.00,155.0,WeatherDisplay:10.37,2013-06-28 22:04:00,
2013-06-28 18:09:00,74.5,69.7,29.49,ESE,111,4.0,4.0,85,0.00,CLR,,0.00,160.0,WeatherDisplay:10.37,2013-06-28 22:09:00,
2013-06-28 18:14:00,74.3,69.5,29.49,SE,133,3.5,3.5,85,0.00,CLR,,0.00,193.0,WeatherDisplay:10.37,2013-06-28 22:14:00,
2013-06-28 18:19:00,74.2,69.4,29.50,South,186,3.5,3.5,85,0.00,CLR,,0.00,149.0,WeatherDisplay:10.37,2013-06-28 22:19:00,
2013-06-28 18:24:00,74.0,69.2,29.50,ESE,111,5.8,5.8,85,0.00,CLR,,0.00,84.0,WeatherDisplay:10.37,2013-06-28 22:24:00,
2013-06-28 18:29:00,73.8,69.0,29.50,South,185,4.6,4.6,85,0.00,CLR,,0.00,81.0,WeatherDisplay:10.37,2013-06-28 22:29:00,
2013-06-28 18:34:00,73.6,69.2,29.50,SE,141,3.5,3.5,86,0.00,CLR,,0.00,70.0,WeatherDisplay:10.37,2013-06-28 22:34:00,
2013-06-28 18:39:00,73.5,69.4,29.50,ESE,120,3.5,3.5,87,0.00,CLR,,0.00,54.0,WeatherDisplay:10.37,2013-06-28 22:39:00,
2013-06-28 18:44:00,73.4,69.3,29.50,SE,126,2.3,2.3,87,0.00,CLR,,0.00,28.0,WeatherDisplay:10.37,2013-06-28 22:44:00,
2013-06-28 18:49:00,73.2,68.8,29.50,SE,128,3.5,3.5,86,0.00,CLR,,0.00,19.0,WeatherDisplay:10.37,2013-06-28 22:49:00,
2013-06-28 18:54:00,73.0,68.6,29.50,SSE,168,3.5,3.5,86,0.00,CLR,,0.00,32.0,WeatherDisplay:10.37,2013-06-28 22:54:00,
2013-06-28 18:59:00,72.9,68.8,29.51,South,171,3.5,3.5,87,0.00,-RA,,0.00,56.0,WeatherDisplay:10.37,2013-06-28 22:59:00,
2013-06-28 19:04:00,72.8,68.7,29.50,SSE,153,2.0,2.0,87,0.00,-RA,,0.00,47.0,WeatherDisplay:10.37,2013-06-28 23:04:00,
2013-06-28 19:09:00,72.7,69.3,29.50,South,174,2.3,2.3,89,0.00,-RA,,0.00,60.0,WeatherDisplay:10.37,2013-06-28 23:09:00,
2013-06-28 19:14:00,72.6,69.8,29.50,South,180,3.5,3.5,91,0.00,-RA,,0.00,137.0,WeatherDisplay:10.37,2013-06-28 23:14:00,
2013-06-28 19:19:00,72.6,69.5,29.49,SE,144,6.9,6.9,90,0.00,-RA,,0.00,69.0,WeatherDisplay:10.37,2013-06-28 23:19:00,
2013-06-28 19:24:00,72.4,69.6,29.50,SE,124,3.0,3.0,91,0.01,-RA,,0.01,72.0,WeatherDisplay:10.37,2013-06-28 23:24:00,
2013-06-28 19:29:00,72.2,69.1,29.50,SE,134,3.5,3.5,90,0.01,-RA,,0.01,53.0,WeatherDisplay:10.37,2013-06-28 23:29:00,
2013-06-28 19:34:00,71.9,69.1,29.50,ESE,111,1.2,1.2,91,0.01,-RA,,0.01,47.0,WeatherDisplay:10.37,2013-06-28 23:34:00,
2013-06-28 19:39:00,71.7,68.9,29.50,ESE,117,1.2,1.2,91,0.01,-RA,,0.01,39.0,WeatherDisplay:10.37,2013-06-28 23:39:00,
2013-06-28 19:44:00,71.7,69.3,29.50,SSE,158,2.3,2.3,92,0.01,-RA,,0.01,28.0,WeatherDisplay:10.37,2013-06-28 23:44:00,
2013-06-28 19:49:00,71.6,69.2,29.50,SE,133,2.3,2.3,92,0.01,-RA,,0.01,12.0,WeatherDisplay:10.37,2013-06-28 23:49:00,
2013-06-28 19:54:00,71.5,69.1,29.50,SE,124,2.3,2.3,92,0.01,-RA,,0.01,9.0,WeatherDisplay:10.37,2013-06-28 23:54:00,
2013-06-28 19:59:00,71.3,68.9,29.50,ESE,119,1.0,1.0,92,0.01,RA,,0.01,9.0,WeatherDisplay:10.37,2013-06-28 23:59:00,
2013-06-28 20:04:00,71.2,68.8,29.50,ESE,119,1.2,1.2,92,0.01,RA,,0.01,7.0,WeatherDisplay:10.37,2013-06-29 00:04:00,
2013-06-28 20:09:00,71.1,68.7,29.50,ESE,119,1.2,0.0,92,0.01,RA,,0.01,5.0,WeatherDisplay:10.37,2013-06-29 00:09:00,
2013-06-28 20:14:00,70.9,68.5,29.50,ESE,119,0.0,0.0,92,0.01,RA,,0.01,9.0,WeatherDisplay:10.37,2013-06-29 00:14:00,
2013-06-28 20:19:00,70.8,68.4,29.50,ESE,119,1.2,0.0,92,0.01,RA,,0.01,12.0,WeatherDisplay:10.37,2013-06-29 00:19:00,
2013-06-28 20:24:00,70.7,68.3,29.51,ESE,119,0.0,0.0,92,0.00,FEW,,0.01,5.0,WeatherDisplay:10.37,2013-06-29 00:24:00,
2013-06-28 20:29:00,70.7,68.6,29.52,ESE,119,1.2,0.0,93,0.00,FEW,,0.01,0.0,WeatherDisplay:10.37,2013-06-29 00:29:00,
2013-06-28 20:34:00,70.7,68.3,29.51,ESE,119,0.0,0.0,92,0.00,FEW,,0.01,0.0,WeatherDisplay:10.37,2013-06-29 00:34:00,
2013-06-28 20:39:00,70.7,68.3,29.52,ESE,119,0.0,0.0,92,0.00,FEW,,0.01,0.0,WeatherDisplay:10.37,2013-06-29 00:39:00,
2013-06-28 20:44:00,70.6,68.2,29.52,ESE,119,0.0,0.0,92,0.00,FEW,,0.01,0.0,WeatherDisplay:10.37,2013-06-29 00:44:00,
2013-06-28 20:49:00,70.5,68.1,29.52,ESE,119,0.0,0.0,92,0.00,FEW,,0.01,0.0,WeatherDisplay:10.37,2013-06-29 00:49:00,
2013-06-28 20:54:00,70.4,68.0,29.52,ESE,119,1.2,1.2,92,0.00,FEW,,0.01,0.0,WeatherDisplay:10.37,2013-06-29 00:54:00,
2013-06-28 20:59:00,70.3,68.2,29.52,NW,317,4.0,4.0,93,0.00,BKN,,0.01,0.0,WeatherDisplay:10.37,2013-06-29 00:59:00,
2013-06-28 21:04:00,70.2,68.1,29.52,NW,325,4.0,4.0,93,0.00,BKN,,0.01,0.0,WeatherDisplay:10.37,2013-06-29 01:04:00,
2013-06-28 21:09:00,70.3,68.5,29.52,NW,307,3.5,3.5,94,0.00,BKN,,0.01,0.0,WeatherDisplay:10.37,2013-06-29 01:09:00,
2013-06-28 21:14:00,70.4,68.6,29.52,NW,323,3.5,3.5,94,0.00,BKN,,0.01,0.0,WeatherDisplay:10.37,2013-06-29 01:14:00,
2013-06-28 21:19:00,70.5,68.4,29.53,NW,304,3.5,3.5,93,0.00,BKN,,0.01,0.0,WeatherDisplay:10.37,2013-06-29 01:19:00,
2013-06-28 21:24:00,70.6,68.5,29.53,NW,304,1.2,1.2,93,0.00,BKN,,0.01,0.0,WeatherDisplay:10.37,2013-06-29 01:24:00,
2013-06-28 21:29:00,70.8,68.7,29.54,NW,305,1.2,1.2,93,0.00,BKN,,0.01,0.0,WeatherDisplay:10.37,2013-06-29 01:29:00,
2013-06-28 21:34:00,71.0,68.9,29.54,NE,47,1.2,1.2,93,0.00,BKN,,0.01,0.0,WeatherDisplay:10.37,2013-06-29 01:34:00,
2013-06-28 21:39:00,71.0,68.9,29.54,NE,47,1.2,1.2,93,0.00,BKN,,0.01,0.0,WeatherDisplay:10.37,2013-06-29 01:39:00,
2013-06-28 21:44:00,71.0,68.9,29.53,NE,55,1.2,1.2,93,0.00,BKN,,0.01,0.0,WeatherDisplay:10.37,2013-06-29 01:44:00,
2013-06-28 21:49:00,70.8,68.4,29.54,NE,55,0.0,0.0,92,0.00,BKN,,0.01,0.0,WeatherDisplay:10.37,2013-06-29 01:49:00,
2013-06-28 21:54:00,70.7,68.3,29.54,NE,55,0.0,0.0,92,0.00,BKN,,0.01,0.0,WeatherDisplay:10.37,2013-06-29 01:54:00,
2013-06-28 21:59:00,70.7,68.6,29.54,NE,55,0.0,0.0,93,0.00,SCT,,0.01,0.0,WeatherDisplay:10.37,2013-06-29 01:59:00,
2013-06-28 22:04:00,70.7,68.3,29.54,NE,55,0.0,0.0,92,0.00,SCT,,0.01,0.0,WeatherDisplay:10.37,2013-06-29 02:04:00,
2013-06-28 22:09:00,70.6,68.2,29.54,NE,55,0.0,0.0,92,0.00,SCT,,0.01,0.0,WeatherDisplay:10.37,2013-06-29 02:09:00,
2013-06-28 22:14:00,70.6,68.2,29.53,NE,55,0.0,0.0,92,0.00,SCT,,0.01,0.0,WeatherDisplay:10.37,2013-06-29 02:14:00,
2013-06-28 22:19:00,70.6,67.8,29.53,NE,55,1.2,1.2,91,0.00,SCT,,0.01,0.0,WeatherDisplay:10.37,2013-06-29 02:19:00,
2013-06-28 22:24:00,70.6,67.8,29.53,NE,55,0.0,0.0,91,0.00,SCT,,0.01,0.0,WeatherDisplay:10.37,2013-06-29 02:24:00,
2013-06-28 22:30:00,70.6,68.2,29.53,East,90,2.3,2.3,92,0.00,SCT,,0.01,0.0,WeatherDisplay:10.37,2013-06-29 02:30:00,
2013-06-28 22:35:00,70.5,68.1,29.53,East,90,0.0,0.0,92,0.00,SCT,,0.01,0.0,WeatherDisplay:10.37,2013-06-29 02:35:00,
2013-06-28 22:40:00,70.5,68.4,29.53,East,90,1.0,0.0,93,0.00,SCT,,0.01,0.0,WeatherDisplay:10.37,2013-06-29 02:40:00,
2013-06-28 22:45:00,70.5,68.4,29.52,East,90,0.0,0.0,93,0.00,SCT,,0.01,0.0,WeatherDisplay:10.37,2013-06-29 02:45:00,
2013-06-28 22:50:00,70.6,68.5,29.52,East,90,1.2,0.0,93,0.00,SCT,,0.01,0.0,WeatherDisplay:10.37,2013-06-29 02:50:00,
2013-06-28 22:55:00,70.7,68.6,29.52,East,90,0.0,0.0,93,0.00,SCT,,0.01,0.0,WeatherDisplay:10.37,2013-06-29 02:55:00,
2013-06-28 23:00:00,70.8,68.7,29.52,East,90,1.2,1.2,93,0.00,CLR,,0.01,0.0,WeatherDisplay:10.37,2013-06-29 03:00:00,
2013-06-28 23:05:00,70.8,68.7,29.52,East,98,1.2,1.2,93,0.00,CLR,,0.01,0.0,WeatherDisplay:10.37,2013-06-29 03:05:00,
2013-06-28 23:10:00,70.8,68.7,29.52,SE,146,1.2,1.2,93,0.00,CLR,,0.01,0.0,WeatherDisplay:10.37,2013-06-29 03:10:00,
2013-06-28 23:15:00,70.8,68.7,29.52,SSE,154,2.3,2.3,93,0.00,CLR,,0.01,0.0,WeatherDisplay:10.37,2013-06-29 03:15:00,
2013-06-28 23:20:00,70.7,68.6,29.52,SSE,157,2.3,2.3,93,0.00,CLR,,0.01,0.0,WeatherDisplay:10.37,2013-06-29 03:20:00,
2013-06-28 23:25:00,70.6,68.5,29.52,SSE,154,3.5,3.5,93,0.00,CLR,,0.01,0.0,WeatherDisplay:10.37,2013-06-29 03:25:00,
2013-06-28 23:30:00,70.6,68.8,29.51,ESE,109,2.3,2.3,94,0.00,CLR,,0.01,0.0,WeatherDisplay:10.37,2013-06-29 03:30:00,
2013-06-28 23:35:00,70.5,68.7,29.51,ESE,109,1.2,1.2,94,0.00,CLR,,0.01,0.0,WeatherDisplay:10.37,2013-06-29 03:35:00,
2013-06-28 23:40:00,70.4,68.6,29.51,SE,128,1.2,1.2,94,0.00,CLR,,0.01,0.0,WeatherDisplay:10.37,2013-06-29 03:40:00,
2013-06-28 23:45:00,70.3,68.5,29.52,SE,134,1.2,1.2,94,0.00,CLR,,0.01,0.0,WeatherDisplay:10.37,2013-06-29 03:45:00,
2013-06-28 23:50:00,70.3,68.5,29.52,SE,134,2.3,2.3,94,0.00,CLR,,0.01,0.0,WeatherDisplay:10.37,2013-06-29 03:50:00,
2013-06-28 23:55:00,70.3,68.8,29.52,SE,134,1.2,1.2,95,0.00,CLR,,0.01,0.0,WeatherDisplay:10.37,2013-06-29 03:55:00,